createdAt,value
2022-11-06T11:55:36.459Z,17.28
2022-11-06T11:58:16.603Z,16.27
2022-11-06T12:01:17.262Z,17.36
2022-11-06T12:04:23.583Z,18.89
2022-11-06T12:13:48.000Z,18.16
2022-11-06T12:20:22.223Z,16.58
2022-11-06T12:23:03.208Z,16.35
2022-11-06T12:25:53.348Z,14.43
2022-11-06T12:40:37.261Z,14.06
2022-11-06T12:44:05.094Z,13.38
2022-11-06T13:07:43.486Z,12.45
2022-11-06T13:11:14.648Z,13.24
2022-11-06T13:42:31.501Z,14.43
2022-11-06T13:45:44.877Z,13.91
2022-11-06T13:49:27.905Z,13.99
2022-11-06T14:34:04.150Z,11.62
2022-11-06T14:36:35.267Z,12.07
2022-11-06T15:06:50.979Z,10.39
2022-11-06T15:17:44.908Z,10.97
2022-11-06T15:23:02.131Z,11.30
2022-11-06T15:28:36.968Z,10.54
2022-11-06T15:36:22.020Z,10.61
2022-11-06T15:38:53.225Z,10.25
2022-11-06T15:41:33.372Z,10.53
2022-11-06T15:44:16.505Z,10.62
2022-11-06T15:55:23.598Z,10.80
2022-11-06T15:57:51.129Z,10.86
2022-11-06T16:00:25.284Z,10.86
2022-11-06T16:02:57.901Z,10.91
2022-11-06T16:05:26.981Z,10.61
2022-11-06T16:07:53.847Z,10.37
2022-11-06T16:10:22.715Z,10.71
2022-11-06T16:12:55.315Z,10.72
2022-11-06T16:15:43.744Z,10.87
2022-11-06T16:18:25.620Z,10.89
2022-11-06T16:21:10.703Z,10.88
2022-11-06T16:24:17.257Z,10.89
2022-11-06T16:26:48.503Z,10.75
2022-11-06T16:29:22.398Z,10.77
2022-11-06T16:31:59.087Z,10.77
2022-11-06T16:35:00.303Z,10.76
2022-11-06T16:37:29.916Z,10.63
2022-11-06T16:39:59.523Z,10.47
2022-11-06T16:42:39.202Z,10.19
2022-11-06T16:45:22.689Z,9.58
2022-11-06T16:48:26.183Z,9.88
2022-11-06T16:50:56.380Z,9.73
2022-11-06T16:53:26.750Z,9.63
2022-11-06T16:55:58.042Z,9.11
2022-11-06T16:58:25.043Z,9.14
2022-11-06T17:01:04.080Z,9.14
2022-11-06T17:03:59.495Z,9.10
2022-11-06T17:06:29.822Z,8.45
2022-11-06T17:09:04.934Z,9.05
2022-11-06T17:11:34.889Z,8.90
2022-11-06T17:14:23.840Z,8.69
2022-11-06T17:17:00.536Z,9.02
2022-11-06T17:19:28.753Z,8.82
2022-11-06T17:21:55.668Z,8.69
2022-11-06T17:24:38.299Z,8.48
2022-11-06T17:27:06.342Z,8.44
2022-11-06T17:29:37.642Z,8.15
2022-11-06T17:32:06.402Z,8.40
2022-11-06T17:34:35.729Z,8.08
2022-11-06T17:37:02.564Z,7.88
2022-11-06T17:39:29.229Z,8.26
2022-11-06T17:41:56.008Z,7.53
2022-11-06T17:44:29.238Z,8.22
2022-11-06T17:46:55.877Z,7.93
2022-11-06T17:49:22.776Z,8.14
2022-11-06T17:51:58.591Z,8.07
2022-11-06T17:54:27.252Z,8.05
2022-11-06T17:56:58.300Z,7.97
2022-11-06T17:59:28.757Z,7.44
2022-11-06T18:01:55.808Z,7.95
2022-11-06T18:04:24.251Z,7.87
2022-11-06T18:06:54.985Z,7.36
2022-11-06T18:09:22.889Z,7.85
2022-11-06T18:11:52.533Z,7.83
2022-11-06T18:14:20.572Z,7.83
2022-11-06T18:16:48.416Z,7.96
2022-11-06T18:19:18.796Z,7.54
2022-11-06T18:21:46.193Z,7.67
2022-11-06T18:24:12.936Z,7.54
2022-11-06T18:26:52.091Z,7.37
2022-11-06T18:29:19.260Z,7.85
2022-11-06T18:31:46.210Z,7.62
2022-11-06T18:34:20.789Z,7.74
2022-11-06T18:36:50.475Z,7.52
2022-11-06T18:39:17.670Z,7.77
2022-11-06T18:41:44.356Z,7.66
2022-11-06T18:44:11.288Z,7.47
2022-11-06T18:46:38.224Z,7.38
2022-11-06T18:49:05.006Z,7.85
2022-11-06T18:51:36.451Z,8.09
2022-11-06T18:54:10.953Z,7.73
2022-11-06T18:56:40.577Z,6.93
2022-11-06T18:59:12.494Z,8.11
2022-11-06T19:01:39.518Z,7.48
2022-11-06T19:04:06.529Z,7.67
2022-11-06T19:06:34.976Z,7.96
2022-11-06T19:09:01.860Z,7.77
2022-11-06T19:11:28.507Z,7.89
2022-11-06T19:13:55.205Z,7.72
2022-11-06T19:16:22.029Z,7.90
2022-11-06T19:21:29.029Z,8.18
2022-11-06T19:24:03.390Z,7.77
2022-11-06T19:26:32.454Z,8.45
2022-11-06T19:29:00.290Z,8.28
2022-11-06T19:31:30.669Z,7.84
2022-11-06T19:34:05.388Z,8.13
2022-11-06T19:36:32.519Z,8.66
2022-11-06T19:38:59.312Z,8.22
2022-11-06T19:41:27.825Z,8.03
2022-11-06T19:43:55.188Z,8.42
2022-11-06T19:46:26.046Z,8.50
2022-11-06T19:48:55.160Z,8.58
2022-11-06T19:51:21.866Z,8.62
2022-11-06T19:53:52.146Z,8.23
2022-11-06T19:56:18.996Z,8.70
2022-11-06T19:58:45.639Z,8.51
2022-11-06T20:01:13.690Z,8.72
2022-11-06T20:03:41.311Z,8.58
2022-11-06T20:06:08.931Z,8.70
2022-11-06T20:08:38.753Z,8.50
2022-11-06T20:11:13.909Z,8.54
2022-11-06T20:13:42.109Z,8.63
2022-11-06T20:16:17.858Z,8.77
2022-11-06T20:18:50.728Z,8.93
2022-11-06T20:21:17.730Z,8.76
2022-11-06T20:23:44.567Z,9.00
2022-11-06T20:26:11.439Z,8.80
2022-11-06T20:28:38.306Z,8.82
2022-11-06T20:31:15.222Z,8.97
2022-11-06T20:33:41.887Z,8.82
2022-11-06T20:36:14.173Z,9.03
2022-11-06T20:38:41.483Z,9.07
2022-11-06T20:41:08.321Z,8.92
2022-11-06T20:43:35.034Z,9.09
2022-11-06T20:46:03.540Z,8.93
2022-11-06T20:48:31.749Z,8.94
2022-11-06T20:51:04.299Z,9.40
2022-11-06T20:53:31.701Z,9.36
2022-11-06T20:56:01.491Z,9.37
2022-11-06T20:58:29.467Z,8.69
2022-11-06T21:01:10.524Z,9.19
2022-11-06T21:03:38.957Z,9.19
2022-11-06T21:06:06.789Z,8.60
2022-11-06T21:08:34.925Z,9.05
2022-11-06T21:11:06.544Z,8.88
2022-11-06T21:13:34.241Z,9.18
2022-11-06T21:16:11.575Z,9.09
2022-11-06T21:18:39.414Z,9.11
2022-11-06T21:21:08.428Z,9.19
2022-11-06T21:23:36.292Z,9.48
2022-11-06T21:26:07.765Z,9.47
2022-11-06T21:28:36.853Z,9.45
2022-11-06T21:31:04.165Z,9.45
2022-11-06T21:33:31.043Z,9.52
2022-11-06T21:36:08.659Z,9.64
2022-11-06T21:38:35.439Z,9.42
2022-11-06T21:41:07.886Z,9.71
2022-11-06T21:43:35.273Z,9.62
2022-11-06T21:46:04.142Z,9.84
2022-11-06T21:48:47.977Z,9.84
2022-11-06T21:51:32.100Z,10.01
2022-11-06T21:54:18.194Z,9.94
2022-11-06T21:56:48.088Z,9.89
2022-11-06T21:59:16.608Z,9.77
2022-11-06T22:01:43.927Z,9.96
2022-11-06T22:04:11.541Z,10.15
2022-11-06T22:06:42.060Z,10.11
2022-11-06T22:09:10.758Z,10.11
2022-11-06T22:11:40.521Z,9.90
2022-11-06T22:14:10.467Z,10.07
2022-11-06T22:16:40.053Z,10.07
2022-11-06T22:19:08.310Z,10.03
2022-11-06T22:21:36.936Z,10.07
2022-11-06T22:24:04.102Z,10.15
2022-11-06T22:26:33.673Z,10.12
2022-11-06T22:29:03.909Z,10.23
2022-11-06T22:31:30.585Z,9.73
2022-11-06T22:33:59.039Z,10.26
2022-11-06T22:36:26.631Z,10.29
2022-11-06T22:38:53.585Z,10.22
2022-11-06T22:41:23.786Z,10.35
2022-11-06T22:43:51.253Z,10.34
2022-11-06T22:46:21.106Z,10.36
2022-11-06T22:48:48.119Z,10.17
2022-11-06T22:51:18.598Z,10.17
2022-11-06T22:53:45.399Z,10.27
2022-11-06T22:56:15.002Z,10.34
2022-11-06T22:58:42.177Z,10.41
2022-11-06T23:01:10.748Z,10.39
2022-11-06T23:03:38.224Z,10.41
2022-11-06T23:06:07.129Z,10.36
2022-11-06T23:08:34.658Z,10.17
2022-11-06T23:11:11.216Z,10.55
2022-11-06T23:13:38.418Z,10.24
2022-11-06T23:16:08.071Z,10.41
2022-11-06T23:18:35.351Z,10.46
2022-11-06T23:21:02.226Z,10.43
2022-11-06T23:23:29.139Z,10.01
2022-11-06T23:25:55.834Z,10.23
2022-11-06T23:28:22.449Z,10.55
2022-11-06T23:30:49.225Z,10.54
2022-11-06T23:33:16.189Z,10.51
2022-11-06T23:35:46.031Z,10.58
2022-11-06T23:38:12.690Z,10.45
2022-11-06T23:40:39.314Z,10.55
2022-11-06T23:43:05.944Z,10.23
2022-11-06T23:45:51.529Z,10.57
2022-11-06T23:48:18.298Z,10.52
2022-11-06T23:50:47.948Z,10.77
2022-11-06T23:53:16.606Z,10.76
2022-11-06T23:55:45.929Z,10.59
2022-11-06T23:58:12.857Z,10.71
